Time;durP1;ratioP1;P1;durP2;ratioP2;P2;SDS_P1;SDS_P2;PMS_P1;PMS_P2;Temp;Humidity;BMP_temperature;BMP_pressure;BME280_temperature;BME280_humidity;BME280_pressure;Samples;Min_cycle;Max_cycle;Signal;HPM_P1;HPM_P2
2024/04/03 00:01:48;;;;;;;18.43;3.47;;;;;;;17.36;100.00;99090.09;31456559;28;20084;-77
2024/04/03 00:16:49;;;;;;;16.03;3.10;;;;;;;16.76;100.00;99084.88;31419980;28;20052;-76
2024/04/03 00:31:50;;;;;;;21.97;4.43;;;;;;;17.09;100.00;99079.66;31465633;28;20501;-78
2024/04/03 00:46:52;;;;;;;11.70;3.30;;;;;;;17.11;100.00;99074.44;31423470;28;20041;-76
2024/04/03 01:01:53;;;;;;;14.03;3.73;;;;;;;17.18;100.00;99119.88;31411327;28;20052;-78
2024/04/03 01:16:55;;;;;;;14.53;4.30;;;;;;;17.20;100.00;99095.47;31407041;28;20059;-77
2024/04/03 01:31:56;;;;;;;14.20;3.60;;;;;;;17.11;100.00;99096.38;31409217;28;20060;-78
2024/04/03 01:46:57;;;;;;;8.72;2.24;;;;;;;17.17;96.67;99090.94;31420147;28;20056;-76
2024/04/03 02:01:58;;;;;;;12.63;2.50;;;;;;;17.37;84.61;99127.25;31455027;28;20051;-77
2024/04/03 02:16:59;;;;;;;9.33;2.40;;;;;;;17.36;81.43;99141.44;31466305;28;20044;-77
2024/04/03 02:32:00;;;;;;;10.03;2.27;;;;;;;16.98;72.49;99126.19;31469008;28;20374;-78
2024/04/03 02:47:01;;;;;;;3.62;1.40;;;;;;;17.01;70.13;99133.41;31407907;28;20064;-80
2024/04/03 03:02:03;;;;;;;3.58;1.26;;;;;;;16.57;69.23;99177.56;31462621;28;20055;-77
2024/04/03 03:17:04;;;;;;;6.03;1.20;;;;;;;16.45;67.31;99228.72;31479672;28;20048;-79
2024/04/03 03:32:05;;;;;;;2.90;0.90;;;;;;;16.33;66.98;99279.09;31464747;28;20045;-79
2024/04/03 03:47:06;;;;;;;11.43;2.07;;;;;;;16.58;67.48;99294.88;31426572;28;20052;-76
2024/04/03 04:02:07;;;;;;;10.72;1.24;;;;;;;16.72;67.57;99328.22;31441210;28;20053;-75
2024/04/03 04:17:08;;;;;;;5.50;0.87;;;;;;;16.64;66.58;99363.50;31431793;28;20052;-77
2024/04/03 04:32:10;;;;;;;1.10;0.60;;;;;;;16.89;65.71;99397.72;31444988;28;20052;-78
2024/04/03 04:47:13;;;;;;;0.83;0.53;;;;;;;16.74;66.04;99410.72;31433550;28;20390;-76
2024/04/03 05:02:15;;;;;;;0.50;0.43;;;;;;;17.65;62.96;99425.84;31438662;28;20045;-77
2024/04/03 05:17:16;;;;;;;1.87;0.70;;;;;;;16.57;65.07;99419.41;31417933;28;20110;-77
2024/04/03 05:32:17;;;;;;;2.10;0.60;;;;;;;17.97;62.33;99435.66;31444755;28;20071;-76
2024/04/03 05:47:18;;;;;;;7.07;0.60;;;;;;;18.16;58.87;99463.56;31481278;28;20561;-77
2024/04/03 06:02:20;;;;;;;2.85;0.60;;;;;;;19.75;55.30;99495.88;31450654;28;20053;-79
2024/04/03 06:17:21;;;;;;;1.42;0.38;;;;;;;20.85;50.84;99504.06;31453486;28;20056;-78
2024/04/03 06:32:22;;;;;;;0.98;0.52;;;;;;;20.97;49.49;99505.56;31430191;28;20052;-79
2024/04/03 06:47:26;;;;;;;17.35;1.58;;;;;;;21.19;48.07;99549.69;31441670;28;20425;-79
2024/04/03 07:02:29;;;;;;;3.75;0.68;;;;;;;20.18;49.28;99545.34;31481558;28;20079;-79
2024/04/03 07:17:30;;;;;;;5.10;1.05;;;;;;;19.71;50.62;99539.41;31441465;28;20420;-79
2024/04/03 07:32:31;;;;;;;2.90;0.82;;;;;;;22.10;46.91;99541.38;31471358;28;20098;-79
2024/04/03 07:47:33;;;;;;;2.10;0.75;;;;;;;22.45;46.19;99520.53;31437231;28;20132;-79
2024/04/03 08:02:40;;;;;;;9.82;1.38;;;;;;;23.67;42.91;99549.09;31448398;28;20075;-78
2024/04/03 08:17:41;;;;;;;6.43;1.10;;;;;;;24.25;41.81;99526.47;31445314;28;20064;-75
2024/04/03 08:32:43;;;;;;;2.00;0.60;;;;;;;24.27;40.64;99512.06;31453749;28;20048;-74
2024/04/03 08:47:45;;;;;;;4.35;0.90;;;;;;;25.31;38.62;99527.47;31434469;28;20062;-77
2024/04/03 09:02:57;;;;;;;8.70;1.20;;;;;;;25.52;37.52;99524.03;31426569;28;20301;-80
2024/04/03 09:18:15;;;;;;;5.38;0.80;;;;;;;26.81;35.01;99526.25;31475538;28;20055;-86
2024/04/03 09:33:19;;;;;;;6.47;1.85;;;;;;;27.61;33.41;99514.56;31447827;28;20070;-83
2024/04/03 09:48:26;;;;;;;2.03;1.73;;;;;;;27.19;32.51;99523.00;31480455;28;20053;-80
2024/04/03 10:03:29;;;;;;;3.70;1.10;;;;;;;28.42;31.43;99533.41;31455596;28;20110;-85
2024/04/03 10:18:40;;;;;;;9.02;1.42;;;;;;;29.35;30.16;99530.78;31470337;28;20053;-84
2024/04/03 10:33:42;;;;;;;7.97;1.20;;;;;;;29.04;30.48;99534.97;31464635;28;20061;-87
2024/04/03 10:48:43;;;;;;;1.57;0.73;;;;;;;28.14;30.30;99543.38;31470105;28;20048;-84
2024/04/03 11:03:54;;;;;;;2.73;1.30;;;;;;;27.94;30.62;99547.03;31433868;28;20053;-85
2024/04/03 11:19:00;;;;;;;8.00;1.20;;;;;;;27.52;29.59;99530.47;31460535;28;20417;-80
2024/04/03 11:34:02;;;;;;;3.00;1.00;;;;;;;27.11;29.85;99514.63;31473529;28;20079;-83
2024/04/03 11:49:04;;;;;;;10.33;0.87;;;;;;;27.83;29.37;99497.91;31481707;28;20056;-79
2024/04/03 12:04:05;;;;;;;9.43;1.30;;;;;;;26.35;29.80;99507.66;31460332;28;20057;-79
2024/04/03 12:34:26;;;;;;;3.63;0.90;;;;;;;24.23;31.81;99522.69;31436936;28;20052;-79
2024/04/03 12:49:28;;;;;;;5.07;1.00;;;;;;;24.65;31.68;99519.03;31451485;28;20049;-85
2024/04/03 13:04:29;;;;;;;14.85;1.80;;;;;;;24.48;31.28;99510.22;31473100;28;20057;-87
2024/04/03 13:19:30;;;;;;;3.30;0.68;;;;;;;23.58;31.80;99537.66;31432592;28;20094;-79
2024/04/03 13:34:31;;;;;;;5.22;1.25;;;;;;;23.52;32.33;99550.78;31441481;28;20045;-86
2024/04/03 13:49:32;;;;;;;5.00;0.93;;;;;;;23.33;32.65;99562.56;31442262;28;20049;-79
2024/04/03 14:04:34;;;;;;;3.40;0.90;;;;;;;23.02;32.60;99574.19;31467262;28;20362;-77
2024/04/03 14:19:35;;;;;;;2.03;0.50;;;;;;;23.47;32.03;99566.94;31454219;28;20139;-80
2024/04/03 14:34:36;;;;;;;4.40;0.50;;;;;;;23.22;32.18;99575.75;31433693;28;20862;-77
2024/04/03 14:49:37;;;;;;;2.33;0.60;;;;;;;23.23;32.74;99585.56;31376887;28;20136;-78
2024/04/03 15:04:38;;;;;;;7.60;0.73;;;;;;;22.92;32.35;99589.59;31374329;28;20429;-78
2024/04/03 15:19:39;;;;;;;1.70;0.52;;;;;;;22.52;32.46;99600.19;31413882;28;20056;-78
2024/04/03 15:34:45;;;;;;;3.13;0.60;;;;;;;22.17;32.92;99611.19;31492990;28;20139;-78
2024/04/03 15:49:46;;;;;;;4.82;0.90;;;;;;;21.88;33.54;99618.81;31435519;28;20479;-78
2024/04/03 16:04:47;;;;;;;2.85;1.00;;;;;;;21.61;34.04;99644.50;31451461;28;20053;-79
2024/04/03 16:19:48;;;;;;;4.45;0.70;;;;;;;21.28;34.40;99668.13;31448443;28;20049;-79
2024/04/03 16:34:49;;;;;;;14.35;6.50;;;;;;;20.95;35.21;99701.19;31418552;28;20110;-82
2024/04/03 16:49:51;;;;;;;4.82;1.42;;;;;;;20.70;35.79;99736.75;31471313;28;20102;-86
2024/04/03 17:04:52;;;;;;;1.75;0.80;;;;;;;20.26;36.79;99759.34;31471320;28;20056;-84
2024/04/03 17:19:53;;;;;;;4.10;0.90;;;;;;;20.14;36.56;99806.59;31453731;28;21032;-78
2024/04/03 17:34:57;;;;;;;11.18;7.85;;;;;;;19.46;37.62;99832.78;31474293;28;20090;-83
2024/04/03 17:49:59;;;;;;;11.00;5.77;;;;;;;18.99;38.56;99850.53;31499345;28;20056;-83
2024/04/03 18:05:15;;;;;;;3.88;1.73;;;;;;;18.85;40.12;99856.88;31515486;28;20398;-84
2024/04/03 18:20:16;;;;;;;6.05;3.53;;;;;;;18.62;40.25;99869.56;31473951;28;20426;-77
2024/04/03 18:35:17;;;;;;;9.07;1.80;;;;;;;18.53;40.67;99886.91;31450138;28;20056;-79
2024/04/03 18:50:19;;;;;;;7.25;3.30;;;;;;;18.34;41.27;99891.13;31466304;28;20056;-81
2024/04/03 19:05:21;;;;;;;4.00;1.60;;;;;;;18.23;41.89;99896.44;31461060;28;20053;-81
2024/04/03 19:20:31;;;;;;;1.90;0.97;;;;;;;17.42;44.08;99909.72;31460898;28;20098;-80
2024/04/03 19:35:32;;;;;;;1.50;0.90;;;;;;;16.94;46.03;99918.72;31434518;28;20040;-78
2024/04/03 19:50:33;;;;;;;2.23;1.20;;;;;;;16.48;47.10;99915.41;31445310;28;20061;-79
2024/04/03 20:05:34;;;;;;;3.00;1.37;;;;;;;16.32;49.18;99918.50;31480008;28;20056;-83
2024/04/03 20:20:40;;;;;;;2.60;1.00;;;;;;;16.20;53.51;99916.72;31460094;28;20064;-84
2024/04/03 20:35:42;;;;;;;1.83;1.17;;;;;;;16.33;54.80;99939.19;31432762;28;20063;-82
2024/04/03 20:50:43;;;;;;;2.90;1.23;;;;;;;15.38;62.25;99946.88;31442843;28;20052;-84
2024/04/03 21:05:44;;;;;;;2.50;1.03;;;;;;;15.58;64.69;99949.97;31491752;28;20057;-81
2024/04/03 21:20:45;;;;;;;3.47;1.47;;;;;;;14.83;72.29;99955.72;31485303;28;20056;-79
2024/04/03 21:35:46;;;;;;;2.13;1.23;;;;;;;15.12;73.89;99958.06;31484256;28;20045;-79
2024/04/03 21:50:47;;;;;;;2.00;1.67;;;;;;;15.15;76.63;99976.31;31442237;28;20088;-80
2024/04/03 22:05:48;;;;;;;6.30;1.70;;;;;;;15.00;79.44;99983.56;31427337;28;20426;-79
2024/04/03 22:20:49;;;;;;;1.40;1.27;;;;;;;14.80;84.79;99973.03;31446842;28;20540;-80
2024/04/03 22:35:50;;;;;;;7.17;5.97;;;;;;;14.62;91.15;99987.38;31471372;28;20120;-81
2024/04/03 22:50:52;;;;;;;8.73;4.00;;;;;;;14.12;100.00;99993.13;31449311;28;20060;-80
2024/04/03 23:05:57;;;;;;;7.60;5.20;;;;;;;13.78;100.00;99985.72;31442858;28;20530;-79
2024/04/03 23:20:59;;;;;;;9.57;4.90;;;;;;;14.15;100.00;99975.84;31502498;28;20048;-79
2024/04/03 23:36:00;;;;;;;9.53;2.80;;;;;;;14.14;100.00;99979.78;31459814;28;20049;-81
2024/04/03 23:51:01;;;;;;;5.10;1.60;;;;;;;14.19;100.00;99973.72;31421097;28;20057;-74
